Weather at Dublin Airport

Public forecast

Using degrees Celsius for public forecast. Weather courtesy of forecast.io.

Current aviation weather report (METAR) for Dublin Airport

Retrieved 2021/10/26 08:30 UTC (17 minutes ago):

EIDW 260830Z 22012G24KT 170V260 9999 FEW008 SCT013 BKN210 14/11 Q1009 NOSIG

Aviation forecast (TAF) for Dublin Airport

Forecast is more than 6 hours old.

Retrieved 2021-10-26 00:09 UTC (9 hours ago):

TAF EIDW 252300Z 2600/2624 23008KT 9999 FEW015 SCT040 BECMG 2601/2603 21015KT TEMPO 2603/2609 22017G28KT PROB30 TEMPO 2604/2607 -RA BKN014 BECMG 2609/2611 23018G30KT PROB40 TEMPO 2611/2614 24022G37KT